sensor_id;sensor_type;location;lat;lon;timestamp;pressure;altitude;pressure_sealevel;temperature;humidity
13013;BME280;22580;57.670;12.006;2023-05-13T00:00:26;102320.75;;;22.69;32.06
13013;BME280;22580;57.670;12.006;2023-05-13T00:02:54;102330.50;;;22.72;32.26
13013;BME280;22580;57.670;12.006;2023-05-13T00:05:21;102306.59;;;22.56;32.20
13013;BME280;22580;57.670;12.006;2023-05-13T00:07:48;102307.63;;;22.55;32.49
13013;BME280;22580;57.670;12.006;2023-05-13T00:10:15;102329.41;;;22.55;32.91
13013;BME280;22580;57.670;12.006;2023-05-13T00:12:42;102308.84;;;22.43;32.57
13013;BME280;22580;57.670;12.006;2023-05-13T00:15:09;102333.47;;;22.51;32.73
13013;BME280;22580;57.670;12.006;2023-05-13T00:17:37;102316.75;;;22.27;32.85
13013;BME280;22580;57.670;12.006;2023-05-13T00:20:08;102337.81;;;22.34;32.96
13013;BME280;22580;57.670;12.006;2023-05-13T00:22:35;102332.78;;;22.49;33.07
13013;BME280;22580;57.670;12.006;2023-05-13T00:25:03;102336.34;;;22.49;33.20
13013;BME280;22580;57.670;12.006;2023-05-13T00:27:30;102321.66;;;22.23;33.75
13013;BME280;22580;57.670;12.006;2023-05-13T00:29:58;102337.00;;;22.24;34.25
13013;BME280;22580;57.670;12.006;2023-05-13T00:32:25;102303.47;;;22.04;34.77
13013;BME280;22580;57.670;12.006;2023-05-13T00:34:52;102340.44;;;22.26;34.49
13013;BME280;22580;57.670;12.006;2023-05-13T00:37:20;102344.00;;;22.36;34.44
13013;BME280;22580;57.670;12.006;2023-05-13T00:39:48;102328.84;;;22.14;34.49
13013;BME280;22580;57.670;12.006;2023-05-13T00:42:15;102333.84;;;22.09;34.72
13013;BME280;22580;57.670;12.006;2023-05-13T00:44:41;102340.16;;;22.19;34.86
13013;BME280;22580;57.670;12.006;2023-05-13T00:47:09;102315.47;;;22.21;34.61
13013;BME280;22580;57.670;12.006;2023-05-13T00:49:37;102338.84;;;22.33;34.30
13013;BME280;22580;57.670;12.006;2023-05-13T00:52:04;102340.31;;;22.08;34.56
13013;BME280;22580;57.670;12.006;2023-05-13T00:54:33;102339.03;;;22.03;34.16
13013;BME280;22580;57.670;12.006;2023-05-13T00:57:00;102342.44;;;21.95;34.24
13013;BME280;22580;57.670;12.006;2023-05-13T00:59:28;102341.59;;;22.04;33.94
13013;BME280;22580;57.670;12.006;2023-05-13T01:02:02;102342.88;;;22.10;33.83
13013;BME280;22580;57.670;12.006;2023-05-13T01:04:39;102342.16;;;21.98;33.95
13013;BME280;22580;57.670;12.006;2023-05-13T01:07:17;102363.34;;;21.95;33.84
13013;BME280;22580;57.670;12.006;2023-05-13T01:09:57;102346.16;;;21.84;33.93
13013;BME280;22580;57.670;12.006;2023-05-13T01:12:31;102360.63;;;21.85;34.23
13013;BME280;22580;57.670;12.006;2023-05-13T01:15:03;102348.75;;;21.86;33.62
13013;BME280;22580;57.670;12.006;2023-05-13T01:17:33;102358.19;;;21.82;34.04
13013;BME280;22580;57.670;12.006;2023-05-13T01:20:02;102349.78;;;21.66;33.94
13013;BME280;22580;57.670;12.006;2023-05-13T01:22:31;102371.94;;;21.80;33.93
13013;BME280;22580;57.670;12.006;2023-05-13T01:24:58;102372.25;;;21.87;33.86
13013;BME280;22580;57.670;12.006;2023-05-13T01:27:25;102370.25;;;21.89;33.78
13013;BME280;22580;57.670;12.006;2023-05-13T01:29:54;102358.34;;;21.90;33.71
13013;BME280;22580;57.670;12.006;2023-05-13T01:32:24;102339.28;;;21.90;33.96
13013;BME280;22580;57.670;12.006;2023-05-13T01:34:52;102360.09;;;22.10;33.58
13013;BME280;22580;57.670;12.006;2023-05-13T01:37:21;102335.56;;;21.81;33.62
13013;BME280;22580;57.670;12.006;2023-05-13T01:39:50;102337.28;;;21.73;33.44
13013;BME280;22580;57.670;12.006;2023-05-13T01:42:17;102359.91;;;21.83;33.50
13013;BME280;22580;57.670;12.006;2023-05-13T01:44:45;102365.94;;;21.77;33.46
13013;BME280;22580;57.670;12.006;2023-05-13T01:47:11;102378.00;;;21.65;33.39
13013;BME280;22580;57.670;12.006;2023-05-13T01:49:38;102350.88;;;21.34;33.84
13013;BME280;22580;57.670;12.006;2023-05-13T01:52:06;102372.38;;;21.47;33.98
13013;BME280;22580;57.670;12.006;2023-05-13T01:54:33;102360.78;;;21.54;33.30
13013;BME280;22580;57.670;12.006;2023-05-13T01:57:06;102382.84;;;21.71;33.92
13013;BME280;22580;57.670;12.006;2023-05-13T01:59:33;102350.97;;;21.23;33.87
13013;BME280;22580;57.670;12.006;2023-05-13T02:02:00;102369.19;;;21.32;34.20
13013;BME280;22580;57.670;12.006;2023-05-13T02:04:28;102366.31;;;21.34;34.27
13013;BME280;22580;57.670;12.006;2023-05-13T02:06:55;102342.53;;;21.26;34.40
13013;BME280;22580;57.670;12.006;2023-05-13T02:09:22;102364.78;;;21.41;34.61
13013;BME280;22580;57.670;12.006;2023-05-13T02:11:50;102358.31;;;21.42;34.54
13013;BME280;22580;57.670;12.006;2023-05-13T02:14:20;102361.09;;;21.21;34.95
13013;BME280;22580;57.670;12.006;2023-05-13T02:16:47;102335.59;;;21.12;34.87
13013;BME280;22580;57.670;12.006;2023-05-13T02:19:14;102365.06;;;21.38;34.87
13013;BME280;22580;57.670;12.006;2023-05-13T02:21:41;102346.25;;;21.25;35.08
13013;BME280;22580;57.670;12.006;2023-05-13T02:24:08;102346.34;;;21.14;34.82
13013;BME280;22580;57.670;12.006;2023-05-13T02:26:35;102341.00;;;21.03;35.19
13013;BME280;22580;57.670;12.006;2023-05-13T02:29:02;102365.47;;;21.33;34.81
13013;BME280;22580;57.670;12.006;2023-05-13T02:31:31;102362.94;;;21.51;34.51
13013;BME280;22580;57.670;12.006;2023-05-13T02:33:57;102363.22;;;21.48;34.41
13013;BME280;22580;57.670;12.006;2023-05-13T02:36:24;102350.72;;;21.36;34.63
13013;BME280;22580;57.670;12.006;2023-05-13T02:38:51;102349.16;;;21.33;34.62
13013;BME280;22580;57.670;12.006;2023-05-13T02:41:18;102360.03;;;21.33;34.86
13013;BME280;22580;57.670;12.006;2023-05-13T02:43:45;102340.75;;;21.15;35.04
13013;BME280;22580;57.670;12.006;2023-05-13T02:46:12;102358.28;;;21.22;35.05
13013;BME280;22580;57.670;12.006;2023-05-13T02:48:40;102304.19;;;20.89;35.14
13013;BME280;22580;57.670;12.006;2023-05-13T02:51:07;102353.84;;;21.21;35.26
13013;BME280;22580;57.670;12.006;2023-05-13T02:53:34;102346.25;;;21.25;35.11
13013;BME280;22580;57.670;12.006;2023-05-13T02:56:02;102328.31;;;21.13;35.02
13013;BME280;22580;57.670;12.006;2023-05-13T02:58:30;102332.81;;;21.23;35.34
13013;BME280;22580;57.670;12.006;2023-05-13T03:00:57;102348.88;;;21.36;35.61
13013;BME280;22580;57.670;12.006;2023-05-13T03:03:24;102337.84;;;21.38;35.60
13013;BME280;22580;57.670;12.006;2023-05-13T03:05:53;102325.81;;;21.40;35.61
13013;BME280;22580;57.670;12.006;2023-05-13T03:08:20;102335.28;;;21.55;35.35
13013;BME280;22580;57.670;12.006;2023-05-13T03:10:47;102345.03;;;21.58;35.32
13013;BME280;22580;57.670;12.006;2023-05-13T03:13:16;102342.75;;;21.53;35.55
13013;BME280;22580;57.670;12.006;2023-05-13T03:15:43;102337.84;;;21.47;35.68
13013;BME280;22580;57.670;12.006;2023-05-13T03:18:10;102315.94;;;21.49;35.72
13013;BME280;22580;57.670;12.006;2023-05-13T03:20:37;102336.72;;;21.59;35.73
13013;BME280;22580;57.670;12.006;2023-05-13T03:23:05;102333.41;;;21.46;36.09
13013;BME280;22580;57.670;12.006;2023-05-13T03:25:32;102323.09;;;21.31;36.45
13013;BME280;22580;57.670;12.006;2023-05-13T03:27:59;102345.28;;;21.36;36.47
13013;BME280;22580;57.670;12.006;2023-05-13T03:30:26;102323.78;;;21.23;36.50
13013;BME280;22580;57.670;12.006;2023-05-13T03:32:54;102334.69;;;21.42;36.40
13013;BME280;22580;57.670;12.006;2023-05-13T03:35:21;102317.22;;;21.45;36.50
13013;BME280;22580;57.670;12.006;2023-05-13T03:37:49;102312.75;;;21.24;37.10
13013;BME280;22580;57.670;12.006;2023-05-13T03:40:18;102336.44;;;21.63;36.58
13013;BME280;22580;57.670;12.006;2023-05-13T03:42:45;102305.47;;;21.35;36.69
13013;BME280;22580;57.670;12.006;2023-05-13T03:45:12;102339.56;;;21.68;36.77
13013;BME280;22580;57.670;12.006;2023-05-13T03:47:39;102328.53;;;21.69;36.77
13013;BME280;22580;57.670;12.006;2023-05-13T03:50:07;102334.44;;;21.65;36.85
13013;BME280;22580;57.670;12.006;2023-05-13T03:52:34;102337.72;;;21.78;36.75
13013;BME280;22580;57.670;12.006;2023-05-13T03:55:01;102314.34;;;21.75;36.95
13013;BME280;22580;57.670;12.006;2023-05-13T03:57:30;102325.25;;;21.75;37.05
13013;BME280;22580;57.670;12.006;2023-05-13T03:59:57;102332.25;;;21.39;37.72
13013;BME280;22580;57.670;12.006;2023-05-13T04:02:24;102314.28;;;21.17;37.67
13013;BME280;22580;57.670;12.006;2023-05-13T04:04:51;102336.25;;;20.95;38.54
13013;BME280;22580;57.670;12.006;2023-05-13T04:07:18;102333.22;;;20.79;38.79
13013;BME280;22580;57.670;12.006;2023-05-13T04:09:45;102336.22;;;20.85;38.85
13013;BME280;22580;57.670;12.006;2023-05-13T04:12:12;102296.16;;;20.78;38.86
13013;BME280;22580;57.670;12.006;2023-05-13T04:14:41;102338.75;;;21.08;38.89
13013;BME280;22580;57.670;12.006;2023-05-13T04:17:08;102331.72;;;21.05;38.87
13013;BME280;22580;57.670;12.006;2023-05-13T04:19:35;102331.19;;;21.21;38.98
13013;BME280;22580;57.670;12.006;2023-05-13T04:22:02;102334.13;;;21.87;37.96
13013;BME280;22580;57.670;12.006;2023-05-13T04:24:29;102295.84;;;21.98;37.27
13013;BME280;22580;57.670;12.006;2023-05-13T04:26:56;102309.78;;;21.76;38.06
13013;BME280;22580;57.670;12.006;2023-05-13T04:29:23;102337.59;;;22.08;38.00
13013;BME280;22580;57.670;12.006;2023-05-13T04:31:52;102312.09;;;21.51;38.47
13013;BME280;22580;57.670;12.006;2023-05-13T04:34:19;102303.91;;;21.80;38.37
13013;BME280;22580;57.670;12.006;2023-05-13T04:36:48;102317.47;;;22.29;37.72
13013;BME280;22580;57.670;12.006;2023-05-13T04:39:14;102319.50;;;22.27;37.88
13013;BME280;22580;57.670;12.006;2023-05-13T04:41:41;102339.69;;;22.71;37.52
13013;BME280;22580;57.670;12.006;2023-05-13T04:44:08;102343.28;;;22.81;37.33
13013;BME280;22580;57.670;12.006;2023-05-13T04:46:35;102343.91;;;23.02;37.47
13013;BME280;22580;57.670;12.006;2023-05-13T04:49:06;102314.91;;;23.01;37.62
13013;BME280;22580;57.670;12.006;2023-05-13T04:51:33;102321.31;;;23.10;37.81
13013;BME280;22580;57.670;12.006;2023-05-13T04:53:59;102334.34;;;22.88;38.08
13013;BME280;22580;57.670;12.006;2023-05-13T04:56:26;102356.47;;;23.13;37.69
13013;BME280;22580;57.670;12.006;2023-05-13T04:58:53;102329.25;;;23.03;37.20
13013;BME280;22580;57.670;12.006;2023-05-13T05:01:20;102338.50;;;23.20;36.58
13013;BME280;22580;57.670;12.006;2023-05-13T05:03:47;102359.81;;;23.34;36.23
13013;BME280;22580;57.670;12.006;2023-05-13T05:06:15;102352.22;;;23.28;35.59
13013;BME280;22580;57.670;12.006;2023-05-13T05:08:42;102358.34;;;23.58;35.04
13013;BME280;22580;57.670;12.006;2023-05-13T05:11:10;102359.34;;;23.39;34.65
13013;BME280;22580;57.670;12.006;2023-05-13T05:13:37;102352.94;;;23.48;34.49
13013;BME280;22580;57.670;12.006;2023-05-13T05:16:04;102349.25;;;23.21;34.46
13013;BME280;22580;57.670;12.006;2023-05-13T05:18:31;102358.91;;;23.16;34.07
13013;BME280;22580;57.670;12.006;2023-05-13T05:21:00;102341.63;;;23.25;33.32
13013;BME280;22580;57.670;12.006;2023-05-13T05:23:28;102366.22;;;23.15;33.28
13013;BME280;22580;57.670;12.006;2023-05-13T05:25:55;102365.94;;;23.64;32.79
13013;BME280;22580;57.670;12.006;2023-05-13T05:28:23;102364.28;;;23.89;32.00
13013;BME280;22580;57.670;12.006;2023-05-13T05:30:51;102369.13;;;23.77;31.96
13013;BME280;22580;57.670;12.006;2023-05-13T05:33:19;102351.50;;;23.89;31.24
13013;BME280;22580;57.670;12.006;2023-05-13T05:35:47;102363.75;;;24.03;30.64
13013;BME280;22580;57.670;12.006;2023-05-13T05:38:14;102367.31;;;24.21;30.30
13013;BME280;22580;57.670;12.006;2023-05-13T05:40:43;102365.81;;;24.27;30.08
13013;BME280;22580;57.670;12.006;2023-05-13T05:43:11;102369.38;;;24.45;29.61
13013;BME280;22580;57.670;12.006;2023-05-13T05:45:38;102358.66;;;24.51;29.00
13013;BME280;22580;57.670;12.006;2023-05-13T05:48:06;102366.22;;;24.92;28.49
13013;BME280;22580;57.670;12.006;2023-05-13T05:50:33;102359.94;;;24.65;28.22
13013;BME280;22580;57.670;12.006;2023-05-13T05:53:03;102362.50;;;24.41;28.62
13013;BME280;22580;57.670;12.006;2023-05-13T05:55:31;102362.09;;;24.54;28.34
13013;BME280;22580;57.670;12.006;2023-05-13T05:58:02;102340.53;;;24.50;28.44
13013;BME280;22580;57.670;12.006;2023-05-13T06:00:30;102370.38;;;24.70;28.09
13013;BME280;22580;57.670;12.006;2023-05-13T06:02:57;102373.59;;;24.65;27.67
13013;BME280;22580;57.670;12.006;2023-05-13T06:05:24;102371.19;;;24.62;28.00
13013;BME280;22580;57.670;12.006;2023-05-13T06:07:53;102379.59;;;24.95;27.67
13013;BME280;22580;57.670;12.006;2023-05-13T06:10:20;102372.97;;;24.97;27.57
13013;BME280;22580;57.670;12.006;2023-05-13T06:12:48;102381.75;;;25.17;27.19
13013;BME280;22580;57.670;12.006;2023-05-13T06:15:17;102388.28;;;25.24;27.27
13013;BME280;22580;57.670;12.006;2023-05-13T06:17:44;102372.91;;;25.31;27.04
13013;BME280;22580;57.670;12.006;2023-05-13T06:20:11;102381.50;;;25.44;27.25
13013;BME280;22580;57.670;12.006;2023-05-13T06:22:38;102385.44;;;25.50;26.86
13013;BME280;22580;57.670;12.006;2023-05-13T06:25:06;102355.66;;;25.47;27.17
13013;BME280;22580;57.670;12.006;2023-05-13T06:27:35;102360.13;;;25.56;26.71
13013;BME280;22580;57.670;12.006;2023-05-13T06:30:02;102390.88;;;25.92;26.76
13013;BME280;22580;57.670;12.006;2023-05-13T06:32:31;102332.47;;;25.67;27.00
13013;BME280;22580;57.670;12.006;2023-05-13T06:35:00;102383.16;;;26.04;26.55
13013;BME280;22580;57.670;12.006;2023-05-13T06:37:27;102391.19;;;26.13;26.57
13013;BME280;22580;57.670;12.006;2023-05-13T06:39:55;102365.16;;;26.09;26.53
13013;BME280;22580;57.670;12.006;2023-05-13T06:42:22;102377.50;;;26.22;26.80
13013;BME280;22580;57.670;12.006;2023-05-13T06:44:49;102383.00;;;26.38;26.69
13013;BME280;22580;57.670;12.006;2023-05-13T06:47:16;102381.09;;;26.55;26.56
13013;BME280;22580;57.670;12.006;2023-05-13T06:49:44;102361.38;;;26.51;26.44
13013;BME280;22580;57.670;12.006;2023-05-13T06:52:12;102362.41;;;26.58;26.29
13013;BME280;22580;57.670;12.006;2023-05-13T06:54:41;102360.19;;;26.45;26.39
13013;BME280;22580;57.670;12.006;2023-05-13T06:57:08;102380.34;;;26.77;26.47
13013;BME280;22580;57.670;12.006;2023-05-13T06:59:36;102354.31;;;26.65;26.43
13013;BME280;22580;57.670;12.006;2023-05-13T07:02:03;102361.84;;;26.71;26.30
13013;BME280;22580;57.670;12.006;2023-05-13T07:04:34;102384.78;;;26.86;26.34
13013;BME280;22580;57.670;12.006;2023-05-13T07:07:02;102388.69;;;26.92;26.30
13013;BME280;22580;57.670;12.006;2023-05-13T07:09:29;102385.59;;;27.03;26.11
13013;BME280;22580;57.670;12.006;2023-05-13T07:11:57;102384.91;;;26.93;26.30
13013;BME280;22580;57.670;12.006;2023-05-13T07:14:24;102391.78;;;26.97;26.20
13013;BME280;22580;57.670;12.006;2023-05-13T07:16:51;102374.63;;;26.87;26.34
13013;BME280;22580;57.670;12.006;2023-05-13T07:19:18;102368.81;;;26.98;26.24
13013;BME280;22580;57.670;12.006;2023-05-13T07:21:45;102379.59;;;26.99;25.94
13013;BME280;22580;57.670;12.006;2023-05-13T07:24:13;102376.41;;;27.27;25.99
13013;BME280;22580;57.670;12.006;2023-05-13T07:26:40;102376.84;;;26.99;25.90
13013;BME280;22580;57.670;12.006;2023-05-13T07:29:07;102374.59;;;26.95;25.13
13013;BME280;22580;57.670;12.006;2023-05-13T07:31:34;102370.28;;;27.17;24.94
13013;BME280;22580;57.670;12.006;2023-05-13T07:34:01;102366.34;;;27.11;24.10
13013;BME280;22580;57.670;12.006;2023-05-13T07:36:28;102362.41;;;27.05;24.53
13013;BME280;22580;57.670;12.006;2023-05-13T07:38:55;102366.69;;;27.08;24.28
13013;BME280;22580;57.670;12.006;2023-05-13T07:41:23;102370.94;;;27.50;23.88
13013;BME280;22580;57.670;12.006;2023-05-13T07:43:52;102366.81;;;27.23;22.77
13013;BME280;22580;57.670;12.006;2023-05-13T07:46:19;102369.28;;;27.09;23.16
13013;BME280;22580;57.670;12.006;2023-05-13T07:48:46;102363.84;;;27.32;22.82
13013;BME280;22580;57.670;12.006;2023-05-13T07:51:13;102371.63;;;27.60;22.39
13013;BME280;22580;57.670;12.006;2023-05-13T07:53:40;102359.44;;;27.54;23.00
13013;BME280;22580;57.670;12.006;2023-05-13T07:56:07;102364.44;;;27.73;22.67
13013;BME280;22580;57.670;12.006;2023-05-13T07:58:36;102355.50;;;27.49;22.90
13013;BME280;22580;57.670;12.006;2023-05-13T08:01:03;102369.94;;;27.73;23.25
13013;BME280;22580;57.670;12.006;2023-05-13T08:03:30;102367.94;;;27.90;22.97
13013;BME280;22580;57.670;12.006;2023-05-13T08:05:57;102359.56;;;28.29;21.94
13013;BME280;22580;57.670;12.006;2023-05-13T08:08:24;102365.66;;;28.69;21.75
13013;BME280;22580;57.670;12.006;2023-05-13T08:10:51;102374.22;;;28.89;22.17
13013;BME280;22580;57.670;12.006;2023-05-13T08:13:18;102365.78;;;28.90;21.47
13013;BME280;22580;57.670;12.006;2023-05-13T08:15:47;102360.19;;;28.84;20.72
13013;BME280;22580;57.670;12.006;2023-05-13T08:18:17;102369.16;;;28.63;21.86
13013;BME280;22580;57.670;12.006;2023-05-13T08:20:45;102370.41;;;28.75;21.09
13013;BME280;22580;57.670;12.006;2023-05-13T08:23:11;102363.91;;;28.24;21.66
13013;BME280;22580;57.670;12.006;2023-05-13T08:25:38;102360.06;;;28.77;21.76
13013;BME280;22580;57.670;12.006;2023-05-13T08:28:05;102352.69;;;28.92;21.84
13013;BME280;22580;57.670;12.006;2023-05-13T08:30:32;102364.44;;;29.16;21.68
13013;BME280;22580;57.670;12.006;2023-05-13T08:33:01;102340.97;;;29.20;21.51
13013;BME280;22580;57.670;12.006;2023-05-13T08:35:28;102367.75;;;29.11;20.83
13013;BME280;22580;57.670;12.006;2023-05-13T08:37:55;102367.97;;;28.95;21.40
13013;BME280;22580;57.670;12.006;2023-05-13T08:40:22;102367.25;;;29.37;21.31
13013;BME280;22580;57.670;12.006;2023-05-13T08:42:49;102364.59;;;29.44;21.00
13013;BME280;22580;57.670;12.006;2023-05-13T08:45:20;102367.75;;;29.26;20.82
13013;BME280;22580;57.670;12.006;2023-05-13T08:47:50;102370.00;;;29.37;21.49
13013;BME280;22580;57.670;12.006;2023-05-13T08:50:20;102369.94;;;29.16;19.71
13013;BME280;22580;57.670;12.006;2023-05-13T08:52:49;102366.81;;;29.04;20.54
13013;BME280;22580;57.670;12.006;2023-05-13T08:55:18;102367.53;;;29.42;21.02
13013;BME280;22580;57.670;12.006;2023-05-13T08:57:46;102348.00;;;28.63;20.71
13013;BME280;22580;57.670;12.006;2023-05-13T09:00:13;102365.66;;;29.13;20.08
13013;BME280;22580;57.670;12.006;2023-05-13T09:02:41;102360.25;;;29.20;20.04
13013;BME280;22580;57.670;12.006;2023-05-13T09:05:09;102358.16;;;28.48;20.73
13013;BME280;22580;57.670;12.006;2023-05-13T09:07:38;102365.38;;;29.23;20.42
13013;BME280;22580;57.670;12.006;2023-05-13T09:10:06;102366.97;;;29.68;20.42
13013;BME280;22580;57.670;12.006;2023-05-13T09:12:41;102366.63;;;29.56;19.33
13013;BME280;22580;57.670;12.006;2023-05-13T09:15:09;102363.47;;;29.59;19.30
13013;BME280;22580;57.670;12.006;2023-05-13T09:17:54;102362.50;;;29.46;18.76
13013;BME280;22580;57.670;12.006;2023-05-13T09:20:22;102365.28;;;29.52;19.62
13013;BME280;22580;57.670;12.006;2023-05-13T09:22:54;102370.78;;;29.16;19.02
13013;BME280;22580;57.670;12.006;2023-05-13T09:25:22;102358.72;;;29.17;19.49
13013;BME280;22580;57.670;12.006;2023-05-13T09:27:51;102357.47;;;29.34;19.46
13013;BME280;22580;57.670;12.006;2023-05-13T09:30:19;102349.88;;;29.22;19.60
13013;BME280;22580;57.670;12.006;2023-05-13T09:33:04;102354.50;;;29.36;19.53
13013;BME280;22580;57.670;12.006;2023-05-13T09:35:31;102357.03;;;29.16;19.19
13013;BME280;22580;57.670;12.006;2023-05-13T09:38:00;102360.16;;;29.13;19.71
13013;BME280;22580;57.670;12.006;2023-05-13T09:40:27;102356.06;;;28.80;20.51
13013;BME280;22580;57.670;12.006;2023-05-13T09:42:56;102350.94;;;28.77;20.24
13013;BME280;22580;57.670;12.006;2023-05-13T09:45:25;102352.09;;;28.82;20.59
13013;BME280;22580;57.670;12.006;2023-05-13T09:47:53;102344.69;;;28.97;20.55
13013;BME280;22580;57.670;12.006;2023-05-13T09:50:21;102349.91;;;28.78;20.63
13013;BME280;22580;57.670;12.006;2023-05-13T09:52:48;102349.50;;;28.66;20.39
13013;BME280;22580;57.670;12.006;2023-05-13T09:55:16;102340.34;;;28.88;20.39
13013;BME280;22580;57.670;12.006;2023-05-13T09:57:44;102336.13;;;28.78;20.79
13013;BME280;22580;57.670;12.006;2023-05-13T10:00:12;102345.56;;;28.83;20.43
13013;BME280;22580;57.670;12.006;2023-05-13T10:02:40;102346.56;;;29.12;20.38
13013;BME280;22580;57.670;12.006;2023-05-13T10:05:07;102342.50;;;28.63;21.00
13013;BME280;22580;57.670;12.006;2023-05-13T10:07:36;102349.22;;;28.76;21.23
13013;BME280;22580;57.670;12.006;2023-05-13T10:10:06;102349.31;;;28.38;21.58
13013;BME280;22580;57.670;12.006;2023-05-13T10:12:38;102348.00;;;28.63;21.63
13013;BME280;22580;57.670;12.006;2023-05-13T10:15:09;102345.72;;;28.82;20.77
13013;BME280;22580;57.670;12.006;2023-05-13T10:17:36;102338.16;;;28.98;20.55
13013;BME280;22580;57.670;12.006;2023-05-13T10:20:05;102341.31;;;29.46;20.42
13013;BME280;22580;57.670;12.006;2023-05-13T10:22:32;102349.91;;;29.07;20.26
13013;BME280;22580;57.670;12.006;2023-05-13T10:25:01;102343.75;;;28.90;20.36
13013;BME280;22580;57.670;12.006;2023-05-13T10:27:30;102340.91;;;28.84;19.82
13013;BME280;22580;57.670;12.006;2023-05-13T10:29:59;102337.97;;;28.85;20.55
13013;BME280;22580;57.670;12.006;2023-05-13T10:32:30;102343.91;;;28.74;19.80
13013;BME280;22580;57.670;12.006;2023-05-13T10:35:01;102334.09;;;27.90;20.45
13013;BME280;22580;57.670;12.006;2023-05-13T10:37:52;102331.75;;;27.64;20.59
13013;BME280;22580;57.670;12.006;2023-05-13T10:43:26;102330.09;;;28.15;20.64
13013;BME280;22580;57.670;12.006;2023-05-13T10:45:58;102333.53;;;27.94;20.72
13013;BME280;22580;57.670;12.006;2023-05-13T10:48:25;102326.84;;;28.12;20.04
13013;BME280;22580;57.670;12.006;2023-05-13T10:50:55;102325.31;;;28.32;20.36
13013;BME280;22580;57.670;12.006;2023-05-13T10:53:23;102323.69;;;28.82;19.96
13013;BME280;22580;57.670;12.006;2023-05-13T10:55:55;102322.19;;;29.09;19.72
13013;BME280;22580;57.670;12.006;2023-05-13T10:58:28;102324.19;;;29.00;19.63
13013;BME280;22580;57.670;12.006;2023-05-13T11:01:15;102321.22;;;29.16;19.50
13013;BME280;22580;57.670;12.006;2023-05-13T11:03:50;102315.72;;;29.16;19.58
13013;BME280;22580;57.670;12.006;2023-05-13T11:06:18;102310.19;;;29.52;19.18
13013;BME280;22580;57.670;12.006;2023-05-13T11:08:47;102327.63;;;28.87;18.78
13013;BME280;22580;57.670;12.006;2023-05-13T11:11:26;102317.34;;;28.81;19.40
13013;BME280;22580;57.670;12.006;2023-05-13T11:14:02;102320.06;;;29.25;19.05
13013;BME280;22580;57.670;12.006;2023-05-13T11:16:33;102313.63;;;29.18;19.57
13013;BME280;22580;57.670;12.006;2023-05-13T11:19:01;102315.13;;;29.21;19.08
13013;BME280;22580;57.670;12.006;2023-05-13T11:21:30;102300.47;;;29.56;19.33
13013;BME280;22580;57.670;12.006;2023-05-13T11:23:59;102305.59;;;29.81;19.11
13013;BME280;22580;57.670;12.006;2023-05-13T11:26:43;102320.56;;;29.72;19.00
13013;BME280;22580;57.670;12.006;2023-05-13T11:29:10;102310.13;;;29.67;18.98
13013;BME280;22580;57.670;12.006;2023-05-13T11:31:46;102316.94;;;29.50;19.16
13013;BME280;22580;57.670;12.006;2023-05-13T11:34:14;102316.03;;;29.64;18.72
13013;BME280;22580;57.670;12.006;2023-05-13T11:36:44;102312.72;;;29.96;18.02
13013;BME280;22580;57.670;12.006;2023-05-13T11:39:13;102302.94;;;30.15;18.54
13013;BME280;22580;57.670;12.006;2023-05-13T11:41:42;102313.38;;;29.98;18.44
13013;BME280;22580;57.670;12.006;2023-05-13T11:44:11;102308.97;;;30.25;17.85
13013;BME280;22580;57.670;12.006;2023-05-13T11:46:49;102313.03;;;30.36;18.05
13013;BME280;22580;57.670;12.006;2023-05-13T11:49:37;102308.00;;;30.12;18.70
13013;BME280;22580;57.670;12.006;2023-05-13T11:52:06;102318.41;;;30.10;18.01
13013;BME280;22580;57.670;12.006;2023-05-13T11:54:42;102311.84;;;30.45;18.18
13013;BME280;22580;57.670;12.006;2023-05-13T11:57:22;102311.03;;;29.74;18.22
13013;BME280;22580;57.670;12.006;2023-05-13T11:59:54;102313.88;;;30.30;18.06
13013;BME280;22580;57.670;12.006;2023-05-13T12:02:24;102309.34;;;30.57;18.41
13013;BME280;22580;57.670;12.006;2023-05-13T12:04:51;102312.75;;;30.87;18.01
13013;BME280;22580;57.670;12.006;2023-05-13T12:07:22;102312.16;;;29.80;18.10
13013;BME280;22580;57.670;12.006;2023-05-13T12:09:49;102306.44;;;29.39;19.09
13013;BME280;22580;57.670;12.006;2023-05-13T12:12:17;102316.41;;;28.89;19.51
13013;BME280;22580;57.670;12.006;2023-05-13T12:14:45;102312.28;;;27.88;19.98
13013;BME280;22580;57.670;12.006;2023-05-13T12:17:14;102312.84;;;27.07;20.88
13013;BME280;22580;57.670;12.006;2023-05-13T12:20:11;102315.28;;;27.56;20.48
13013;BME280;22580;57.670;12.006;2023-05-13T12:22:50;102310.56;;;26.80;22.31
13013;BME280;22580;57.670;12.006;2023-05-13T12:25:37;102319.97;;;26.85;22.39
13013;BME280;22580;57.670;12.006;2023-05-13T12:28:09;102308.47;;;26.02;22.56
13013;BME280;22580;57.670;12.006;2023-05-13T12:30:37;102305.25;;;25.98;22.96
13013;BME280;22580;57.670;12.006;2023-05-13T12:33:04;102297.78;;;27.57;21.31
13013;BME280;22580;57.670;12.006;2023-05-13T12:35:33;102300.00;;;26.99;22.54
13013;BME280;22580;57.670;12.006;2023-05-13T12:38:01;102299.34;;;26.89;22.52
13013;BME280;22580;57.670;12.006;2023-05-13T12:40:29;102290.34;;;29.85;19.33
13013;BME280;22580;57.670;12.006;2023-05-13T12:42:57;102287.81;;;31.15;19.06
13013;BME280;22580;57.670;12.006;2023-05-13T12:45:27;102294.06;;;27.72;20.80
13013;BME280;22580;57.670;12.006;2023-05-13T12:47:54;102299.59;;;26.71;22.02
13013;BME280;22580;57.670;12.006;2023-05-13T12:50:21;102285.78;;;26.57;22.46